»·PEaware :: N751BH KPSP-KSAN

N751BH :: KPSP-KSAN

FLIGHT INFORMATION

Flight Status: Arrived
Operator: Privately registered:
United States
More flights under this callsign
Pilot: Dominic B. (18944)
Aircraft: CESSNA 441 CONQUEST 2
(C441)
More flights by this aircraft type
Origin: KPSP Palm Springs Intl
United States
Destination: KSAN San Diego Intl-Lindbergh
United States
More flights between these airports :: More routes between these airports
Route: +CATH1 PSP TRM V514 MZB
File this flight plan on PilotEdge
Remarks: RMK / SIMBRIEF
Altitude:
(Current/Filed)
16,000ft
Speed:
(Current/Filed)
271kts
Departed: 27-Oct-20 06:34 PM
Arrived: 27-Oct-20 07:07 PM
Distance/Time
Traveled:
74nm/0:33
Distance/Time
To Go:
Arrived

Flight Plot

Page will automatically refresh every two minutes.


Map Options




Map Legend


Flown Route
Filed Route
Departure Airport
Arrival Airport
Navaid (VOR, NDB)
Fix

Horizontal Profiles

Position Reports

Time Latitude Longitude Heading Altitude Ground
Speed
27-Oct-20 18:08 33.823883 -116.498067 49 480ft 0kts
27-Oct-20 18:09 33.823883 -116.498067 49 480ft 0kts
27-Oct-20 18:10 33.823883 -116.498067 49 480ft 0kts
27-Oct-20 18:11 33.823885 -116.498065 49 480ft 0kts
27-Oct-20 18:12 33.823886 -116.498063 48 480ft 0kts
27-Oct-20 18:13 33.823887 -116.498062 48 480ft 0kts
27-Oct-20 18:14 33.823887 -116.498062 48 480ft 0kts
27-Oct-20 18:15 33.823887 -116.498062 48 480ft 0kts
27-Oct-20 18:16 33.823887 -116.498062 48 480ft 0kts
27-Oct-20 18:17 33.823887 -116.498062 48 480ft 0kts
27-Oct-20 18:18 33.823887 -116.498062 48 480ft 0kts
27-Oct-20 18:19 33.823887 -116.498062 48 480ft 0kts
27-Oct-20 18:20 33.823887 -116.498062 48 480ft 0kts
27-Oct-20 18:21 33.823887 -116.498062 48 480ft 0kts
27-Oct-20 18:22 33.823887 -116.498062 48 480ft 0kts
27-Oct-20 18:23 33.823887 -116.498062 48 480ft 0kts
27-Oct-20 18:24 33.823887 -116.498062 48 480ft 0kts
27-Oct-20 18:26 33.823887 -116.498061 48 480ft 0kts
27-Oct-20 18:27 33.823889 -116.498059 48 480ft 0kts
27-Oct-20 18:28 33.823134 -116.497107 146 480ft 12kts
27-Oct-20 18:29 33.821725 -116.496350 163 480ft 9kts
27-Oct-20 18:30 33.820784 -116.495637 145 480ft 1kts
27-Oct-20 18:31 33.820615 -116.495501 150 480ft 2kts
27-Oct-20 18:32 33.819171 -116.497170 233 480ft 0kts
27-Oct-20 18:33 33.819169 -116.497173 233 480ft 0kts
27-Oct-20 18:34 33.820901 -116.499884 323 480ft 72kts
27-Oct-20 18:35 33.849464 -116.526393 319 1790ft 147kts
27-Oct-20 18:36 33.884948 -116.553694 315 4145ft 155kts
27-Oct-20 18:37 33.919997 -116.558490 69 6384ft 168kts
27-Oct-20 18:38 33.896733 -116.499457 115 7001ft 224kts
27-Oct-20 18:39 33.870709 -116.435118 112 6980ft 206kts
27-Oct-20 18:39 33.849530 -116.384277 114 7202ft 195kts
27-Oct-20 18:41 33.820317 -116.315613 114 9155ft 205kts
27-Oct-20 18:41 33.796540 -116.265208 114 10652ft 209kts
27-Oct-20 18:43 33.757194 -116.286315 298 12752ft 181kts
27-Oct-20 18:43 33.755992 -116.336359 229 14221ft 222kts
27-Oct-20 18:45 33.684879 -116.367757 201 15987ft 255kts
27-Oct-20 18:45 33.624406 -116.392108 200 16002ft 288kts
27-Oct-20 18:46 33.547099 -116.423214 200 15999ft 295kts
27-Oct-20 18:47 33.468858 -116.454866 201 16009ft 298kts
27-Oct-20 18:48 33.390510 -116.486457 201 16004ft 297kts
27-Oct-20 18:49 33.312141 -116.518062 201 16007ft 297kts
27-Oct-20 18:50 33.234542 -116.549251 200 14647ft 289kts
27-Oct-20 18:51 33.159618 -116.579133 200 12451ft 278kts
27-Oct-20 18:52 33.084709 -116.592639 185 10268ft 268kts
27-Oct-20 18:53 33.014341 -116.599886 184 9023ft 238kts
27-Oct-20 18:54 32.953732 -116.605949 184 8992ft 207kts
27-Oct-20 18:55 32.892214 -116.612110 184 9017ft 244kts
27-Oct-20 18:56 32.823137 -116.619225 184 9013ft 254kts
27-Oct-20 18:57 32.774400 -116.668668 267 8999ft 242kts
27-Oct-20 18:58 32.775695 -116.749074 275 8302ft 243kts
27-Oct-20 18:59 32.744001 -116.819774 233 7318ft 250kts
27-Oct-20 19:00 32.699976 -116.883349 232 6315ft 246kts
27-Oct-20 19:01 32.665614 -116.951510 269 5294ft 234kts
27-Oct-20 19:02 32.691571 -117.016968 290 4036ft 213kts
27-Oct-20 19:03 32.706613 -117.081479 288 2595ft 173kts
27-Oct-20 19:04 32.719216 -117.131683 286 1122ft 156kts
27-Oct-20 19:05 32.730657 -117.177811 286 83ft 119kts
27-Oct-20 19:06 32.733865 -117.194889 151 18ft 13kts
27-Oct-20 19:07 32.734520 -117.190912 36 18ft 17kts
27-Oct-20 19:08 32.733388 -117.184255 106 18ft 27kts
27-Oct-20 19:09 32.732827 -117.179738 31 18ft 9kts
27-Oct-20 19:10 32.734016 -117.178807 82 18ft 0kts
27-Oct-20 19:11 32.734016 -117.178807 82 18ft 0kts

Navigation Log

Ident Type
Flight plan parsing failed, navigation log unavailable